createdAt,value
2023-04-29T00:00:10.634Z,100349.41
2023-04-29T00:02:42.429Z,100344.38
2023-04-29T00:05:14.320Z,100357.50
2023-04-29T00:07:45.997Z,100335.31
2023-04-29T00:10:17.461Z,100345.09
2023-04-29T00:12:49.218Z,100337.09
2023-04-29T00:15:20.732Z,100343.91
2023-04-29T00:17:52.286Z,100345.22
2023-04-29T00:20:23.757Z,100332.19
2023-04-29T00:22:55.232Z,100324.88
2023-04-29T00:25:26.680Z,100323.03
2023-04-29T00:27:58.489Z,100315.41
2023-04-29T00:30:29.935Z,100321.53
2023-04-29T00:33:01.851Z,100324.59
2023-04-29T00:35:33.348Z,100335.25
2023-04-29T00:38:04.825Z,100337.22
2023-04-29T00:40:36.281Z,100328.75
2023-04-29T00:43:08.029Z,100334.78
2023-04-29T00:45:39.515Z,100330.59
2023-04-29T00:48:11.005Z,100333.50
2023-04-29T00:50:42.470Z,100332.47
2023-04-29T00:53:14.336Z,100335.59
2023-04-29T00:55:45.787Z,100336.41
2023-04-29T00:58:17.419Z,100342.00
2023-04-29T01:00:48.866Z,100345.00
2023-04-29T01:03:20.802Z,100346.53
2023-04-29T01:05:52.355Z,100338.63
2023-04-29T01:08:24.166Z,100335.38
2023-04-29T01:10:55.637Z,100332.69
2023-04-29T01:13:27.413Z,100331.56
2023-04-29T01:15:58.999Z,100319.03
2023-04-29T01:18:30.825Z,100321.16
2023-04-29T01:21:02.281Z,100312.91
2023-04-29T01:23:34.083Z,100306.66
2023-04-29T01:26:05.554Z,100309.09
2023-04-29T01:28:37.363Z,100327.28
2023-04-29T01:31:08.838Z,100335.06
2023-04-29T01:33:40.643Z,100334.25
2023-04-29T01:36:12.106Z,100332.28
2023-04-29T01:38:43.603Z,100326.03
2023-04-29T01:41:15.085Z,100333.44
2023-04-29T01:43:46.883Z,100326.22
2023-04-29T01:46:18.596Z,100321.47
2023-04-29T01:48:50.084Z,100321.34
2023-04-29T01:51:21.529Z,100321.56
2023-04-29T01:53:53.039Z,100310.78
2023-04-29T01:56:24.895Z,100312.06
2023-04-29T01:58:56.391Z,100311.47
2023-04-29T02:01:28.026Z,100301.16
2023-04-29T02:03:59.687Z,100315.31
2023-04-29T02:06:31.549Z,100311.38
2023-04-29T02:09:03.004Z,100314.94
2023-04-29T02:11:34.701Z,100312.41
2023-04-29T02:14:06.181Z,100310.56
2023-04-29T02:16:38.037Z,100313.00
2023-04-29T02:19:09.578Z,100313.22
2023-04-29T02:21:41.073Z,100311.00
2023-04-29T02:24:12.556Z,100309.28
2023-04-29T02:26:44.041Z,100308.34
2023-04-29T02:29:15.469Z,100305.69
2023-04-29T02:31:47.262Z,100309.88
2023-04-29T02:34:18.715Z,100302.09
2023-04-29T02:36:50.192Z,100303.50
2023-04-29T02:39:21.674Z,100298.72
2023-04-29T02:41:53.226Z,100305.09
2023-04-29T02:44:24.704Z,100303.59
2023-04-29T02:46:56.211Z,100302.38
2023-04-29T02:49:27.665Z,100302.38
2023-04-29T02:51:59.443Z,100304.13
2023-04-29T02:54:30.895Z,100302.63
2023-04-29T02:57:02.672Z,100300.63
2023-04-29T02:59:34.174Z,100299.00
2023-04-29T03:02:05.916Z,100295.53
2023-04-29T03:04:37.393Z,100290.34
2023-04-29T03:07:09.150Z,100294.41
2023-04-29T03:09:40.639Z,100296.84
2023-04-29T03:12:12.368Z,100294.78
2023-04-29T03:14:43.853Z,100296.41
2023-04-29T03:17:15.698Z,100291.06
2023-04-29T03:19:47.158Z,100295.81
2023-04-29T03:22:18.872Z,100292.47
2023-04-29T03:24:50.331Z,100297.34
2023-04-29T03:27:22.272Z,100289.34
2023-04-29T03:29:54.120Z,100286.09
2023-04-29T03:32:26.178Z,100288.84
2023-04-29T03:34:57.656Z,100287.44
2023-04-29T03:37:29.524Z,100288.63
2023-04-29T03:40:00.998Z,100288.63
2023-04-29T03:42:32.839Z,100287.25
2023-04-29T03:45:04.305Z,100288.75
2023-04-29T03:47:36.214Z,100293.28
2023-04-29T03:50:07.849Z,100288.53
2023-04-29T03:52:39.751Z,100287.03
2023-04-29T03:55:11.215Z,100286.00
2023-04-29T03:57:43.174Z,100292.38
2023-04-29T04:00:14.627Z,100282.97
2023-04-29T04:02:46.670Z,100293.41
2023-04-29T04:05:18.283Z,100286.81
2023-04-29T04:07:49.921Z,100293.31
2023-04-29T04:10:21.355Z,100292.38
2023-04-29T04:12:53.129Z,100299.94
2023-04-29T04:15:24.580Z,100304.81
2023-04-29T04:17:56.166Z,100302.81
2023-04-29T04:20:27.658Z,100300.75
2023-04-29T04:22:59.622Z,100302.38
2023-04-29T04:25:31.092Z,100305.59
2023-04-29T04:28:02.577Z,100303.63
2023-04-29T04:30:34.031Z,100301.75
2023-04-29T04:33:06.118Z,100300.94
2023-04-29T04:35:37.604Z,100309.19
2023-04-29T04:38:09.140Z,100302.13
2023-04-29T04:40:40.587Z,100309.19
2023-04-29T04:43:12.376Z,100313.50
2023-04-29T04:45:43.868Z,100307.09
2023-04-29T04:48:15.878Z,100314.06
2023-04-29T04:50:47.343Z,100308.16
2023-04-29T04:53:19.169Z,100308.53
2023-04-29T04:55:50.656Z,100318.16
2023-04-29T04:58:22.491Z,100315.47
2023-04-29T05:00:54.019Z,100314.44
2023-04-29T05:03:26.114Z,100311.06
2023-04-29T05:05:57.740Z,100315.34
2023-04-29T05:08:29.531Z,100315.13
2023-04-29T05:11:00.969Z,100319.97
2023-04-29T05:13:32.876Z,100311.75
2023-04-29T05:16:06.347Z,100319.03
2023-04-29T05:18:38.490Z,100321.81
2023-04-29T05:21:09.957Z,100325.19
2023-04-29T05:23:41.810Z,100316.38
2023-04-29T05:26:13.272Z,100329.81
2023-04-29T05:28:45.229Z,100316.47
2023-04-29T05:31:16.727Z,100329.94
2023-04-29T05:33:48.335Z,100325.28
2023-04-29T05:36:19.815Z,100335.75
2023-04-29T05:38:51.378Z,100327.84
2023-04-29T05:41:22.827Z,100329.25
2023-04-29T05:43:54.415Z,100329.59
2023-04-29T05:46:25.924Z,100329.25
2023-04-29T05:48:57.831Z,100338.88
2023-04-29T05:51:29.715Z,100342.69
2023-04-29T05:54:01.528Z,100325.50
2023-04-29T05:56:33.008Z,100223.75
2023-04-29T05:59:04.862Z,100333.97
2023-04-29T06:01:36.363Z,100340.72
2023-04-29T06:04:08.572Z,100344.28
2023-04-29T06:06:40.190Z,100340.94
2023-04-29T06:09:23.986Z,100343.97
2023-04-29T06:11:58.825Z,100350.34
2023-04-29T06:14:30.635Z,100348.63
2023-04-29T06:17:02.143Z,100357.88
2023-04-29T06:19:33.676Z,100349.97
2023-04-29T06:22:05.180Z,100357.41
2023-04-29T06:24:37.037Z,100360.53
2023-04-29T06:27:08.482Z,100356.81
2023-04-29T06:29:40.434Z,100358.91
2023-04-29T06:32:11.878Z,100363.78
2023-04-29T06:34:43.914Z,100361.69
2023-04-29T06:37:15.374Z,100363.66
2023-04-29T06:39:47.240Z,100365.84
2023-04-29T06:42:18.711Z,100364.31
2023-04-29T06:44:50.571Z,100372.94
2023-04-29T06:47:22.082Z,100380.50
2023-04-29T06:49:53.942Z,100377.47
2023-04-29T06:52:25.642Z,100375.47
2023-04-29T06:54:57.217Z,100381.72
2023-04-29T06:57:28.691Z,100384.03
2023-04-29T07:00:00.203Z,100388.22
2023-04-29T07:02:32.445Z,100389.38
2023-04-29T07:05:04.170Z,100387.59
2023-04-29T07:07:36.384Z,100399.72
2023-04-29T07:10:08.028Z,100393.84
2023-04-29T07:12:39.882Z,100402.50
2023-04-29T07:15:11.343Z,100409.38
2023-04-29T07:17:43.168Z,100408.66
2023-04-29T07:20:14.653Z,100408.22
2023-04-29T07:22:46.430Z,100409.19
2023-04-29T07:25:17.883Z,100411.78
2023-04-29T07:27:49.430Z,100419.41
2023-04-29T07:30:20.883Z,100418.94
2023-04-29T07:32:52.411Z,100428.53
2023-04-29T07:35:23.943Z,100429.13
2023-04-29T07:37:55.460Z,100275.69
2023-04-29T07:40:26.933Z,100436.22
2023-04-29T07:42:58.792Z,100443.44
2023-04-29T07:45:30.241Z,100441.53
2023-04-29T07:48:02.058Z,100449.97
2023-04-29T07:50:33.501Z,100453.94
2023-04-29T07:53:05.175Z,100457.00
2023-04-29T07:55:36.692Z,100468.00
2023-04-29T07:58:08.163Z,100463.72
2023-04-29T08:00:39.606Z,100469.72
2023-04-29T08:03:11.558Z,100471.72
2023-04-29T08:05:43.253Z,100482.31
2023-04-29T08:08:15.193Z,100488.16
2023-04-29T08:10:46.653Z,100496.75
2023-04-29T08:13:18.477Z,100502.81
2023-04-29T08:15:50.227Z,100503.94
2023-04-29T08:18:22.138Z,100508.69
2023-04-29T08:20:53.603Z,100507.78
2023-04-29T08:23:25.285Z,100514.84
2023-04-29T08:25:56.843Z,100524.03
2023-04-29T08:28:28.765Z,100527.03
2023-04-29T08:31:00.224Z,100529.59
2023-04-29T08:33:32.084Z,100539.47
2023-04-29T08:36:03.569Z,100540.63
2023-04-29T08:38:35.282Z,100546.78
2023-04-29T08:41:06.845Z,100553.75
2023-04-29T08:43:38.333Z,100550.72
2023-04-29T08:46:09.849Z,100556.28
2023-04-29T08:48:44.880Z,100565.22
2023-04-29T08:51:16.726Z,100570.69
2023-04-29T08:53:48.565Z,100564.19
2023-04-29T08:56:20.116Z,100578.00
2023-04-29T08:58:52.313Z,100576.16
2023-04-29T09:01:24.225Z,100588.00
2023-04-29T09:03:55.930Z,100589.28
2023-04-29T09:06:27.853Z,100605.75
2023-04-29T09:08:59.303Z,100604.94
2023-04-29T09:11:31.260Z,100599.78
2023-04-29T09:14:02.715Z,100613.53
2023-04-29T09:16:34.549Z,100604.84
2023-04-29T09:19:06.066Z,100608.78
2023-04-29T09:21:37.980Z,100618.88
2023-04-29T09:24:09.448Z,100621.56
2023-04-29T09:26:40.923Z,100621.69
2023-04-29T09:29:12.366Z,100630.50
2023-04-29T09:31:43.893Z,100635.88
2023-04-29T09:34:15.456Z,100636.31
2023-04-29T09:36:46.953Z,100643.34
2023-04-29T09:39:18.401Z,100648.22
2023-04-29T09:41:49.916Z,100648.47
2023-04-29T09:44:21.374Z,100652.41
2023-04-29T09:46:52.855Z,100665.03
2023-04-29T09:49:24.306Z,100665.03
2023-04-29T09:51:55.774Z,100672.13
2023-04-29T09:54:27.253Z,100670.78
2023-04-29T09:56:59.064Z,100679.22
2023-04-29T09:59:30.522Z,100686.13
2023-04-29T10:02:02.170Z,100687.91
2023-04-29T10:04:33.658Z,100696.00
2023-04-29T10:07:05.484Z,100694.94
2023-04-29T10:09:36.938Z,100701.03
2023-04-29T10:12:08.696Z,100707.75
2023-04-29T10:14:40.154Z,100708.88
2023-04-29T10:17:11.935Z,100708.66
2023-04-29T10:19:43.405Z,100713.19
2023-04-29T10:22:15.056Z,100709.91
2023-04-29T10:24:46.516Z,100515.06
2023-04-29T10:27:18.138Z,100716.84
2023-04-29T10:29:49.611Z,100712.81
2023-04-29T10:32:21.115Z,100723.75
2023-04-29T10:34:52.826Z,100727.88
2023-04-29T10:37:24.482Z,100734.44
2023-04-29T10:39:55.945Z,100731.94
2023-04-29T10:42:27.873Z,100740.47
2023-04-29T10:44:59.337Z,100737.44
2023-04-29T10:47:31.085Z,100744.84
2023-04-29T10:50:02.540Z,100751.22
2023-04-29T10:52:34.275Z,100749.13
2023-04-29T10:55:05.746Z,100754.25
2023-04-29T10:57:37.758Z,100753.81
2023-04-29T11:00:09.218Z,100756.00
2023-04-29T11:02:40.889Z,100750.75
2023-04-29T11:05:12.550Z,100535.56
2023-04-29T11:07:44.358Z,100770.03
2023-04-29T11:10:16.813Z,100767.84
2023-04-29T11:12:48.283Z,100761.53
2023-04-29T11:15:20.114Z,100766.19
2023-04-29T11:17:51.610Z,100770.09
2023-04-29T11:20:23.103Z,100763.22
2023-04-29T11:22:54.558Z,100769.97
2023-04-29T11:25:26.348Z,100779.53
2023-04-29T11:27:57.796Z,100780.34
2023-04-29T11:30:29.248Z,100788.59
2023-04-29T11:33:00.926Z,100777.41
2023-04-29T11:35:32.519Z,100783.44
2023-04-29T11:38:03.982Z,100788.66
2023-04-29T11:40:35.951Z,100796.50
2023-04-29T11:43:07.566Z,100798.16
2023-04-29T11:45:39.121Z,100794.09
2023-04-29T11:48:10.692Z,100804.78
2023-04-29T11:50:42.690Z,100804.94
2023-04-29T11:53:14.149Z,100808.81
2023-04-29T11:55:45.906Z,100806.31
2023-04-29T11:58:17.726Z,100810.16
2023-04-29T12:00:49.176Z,100810.34
2023-04-29T12:03:20.834Z,100810.28
2023-04-29T12:05:52.435Z,100818.94
2023-04-29T12:08:23.914Z,100818.94
2023-04-29T12:10:55.363Z,100824.88
2023-04-29T12:13:27.283Z,100826.56
2023-04-29T12:15:58.795Z,100840.31
2023-04-29T12:18:30.381Z,100828.44
2023-04-29T12:21:01.858Z,100832.69
2023-04-29T12:23:33.582Z,100835.94
2023-04-29T12:26:05.068Z,100838.53
2023-04-29T12:28:36.790Z,100833.22
2023-04-29T12:31:08.368Z,100835.25
2023-04-29T12:33:40.185Z,100838.66
2023-04-29T12:36:11.624Z,100842.38
2023-04-29T12:38:43.251Z,100854.72
2023-04-29T12:41:14.777Z,100853.66
2023-04-29T12:43:46.549Z,100852.63
2023-04-29T12:46:18.004Z,100851.78
2023-04-29T12:48:49.481Z,100848.16
2023-04-29T12:51:20.953Z,100853.97
2023-04-29T12:53:52.406Z,100847.72
2023-04-29T12:56:23.849Z,100851.94
2023-04-29T12:58:55.384Z,100860.78
2023-04-29T13:01:26.879Z,100849.88
2023-04-29T13:03:59.030Z,100855.94
2023-04-29T13:06:30.689Z,100847.78
2023-04-29T13:09:02.815Z,100856.97
2023-04-29T13:11:34.856Z,100854.06
2023-04-29T13:14:06.745Z,100860.56
2023-04-29T13:16:38.254Z,100860.59
2023-04-29T13:19:29.469Z,100861.84
2023-04-29T13:22:01.492Z,100856.59
2023-04-29T13:24:33.518Z,100856.94
2023-04-29T13:27:05.000Z,100855.72
2023-04-29T13:29:36.842Z,100858.44
2023-04-29T13:32:08.342Z,100865.44
2023-04-29T13:34:40.935Z,100870.00
2023-04-29T13:37:12.471Z,100872.03
2023-04-29T13:39:45.868Z,100882.00
2023-04-29T13:42:19.306Z,100880.34
2023-04-29T13:44:53.007Z,100882.59
2023-04-29T13:47:31.975Z,100882.75
2023-04-29T13:53:19.146Z,100882.91
2023-04-29T14:01:10.266Z,100881.34
2023-04-29T14:03:32.460Z,100889.81
2023-04-29T14:06:07.190Z,100887.44
2023-04-29T14:08:38.628Z,100889.91
2023-04-29T14:11:10.386Z,100905.53
2023-04-29T14:13:41.837Z,100905.19
2023-04-29T14:16:13.806Z,100901.97
2023-04-29T14:18:45.319Z,100894.25
2023-04-29T14:21:17.157Z,100902.25
2023-04-29T14:23:48.962Z,100904.69
2023-04-29T14:26:27.808Z,100905.75
2023-04-29T14:29:00.372Z,100914.03
2023-04-29T14:31:32.002Z,100910.94
2023-04-29T14:34:03.884Z,100916.91
2023-04-29T14:36:35.360Z,100915.72
2023-04-29T14:39:07.134Z,100920.06
2023-04-29T14:41:38.589Z,100930.53
2023-04-29T14:44:10.363Z,100916.88
2023-04-29T14:46:41.906Z,100917.53
2023-04-29T14:49:14.003Z,100919.88
2023-04-29T14:51:45.451Z,100924.94
2023-04-29T14:54:17.319Z,100920.94
2023-04-29T14:56:48.791Z,100919.44
2023-04-29T14:59:20.261Z,100921.88
2023-04-29T15:01:51.749Z,100926.34
2023-04-29T15:04:23.658Z,100928.31
2023-04-29T15:06:55.138Z,100925.00
2023-04-29T15:09:26.814Z,100927.53
2023-04-29T15:11:58.266Z,100922.28
2023-04-29T15:14:30.103Z,100922.44
2023-04-29T15:17:01.571Z,100927.53
2023-04-29T15:19:33.079Z,100921.06
2023-04-29T15:22:04.534Z,100928.63
2023-04-29T15:24:36.194Z,100930.06
2023-04-29T15:27:07.664Z,100933.34
2023-04-29T15:29:39.582Z,100931.91
2023-04-29T15:32:11.133Z,100936.38
2023-04-29T15:34:42.993Z,100938.72
2023-04-29T15:37:14.467Z,100939.47
2023-04-29T15:39:46.100Z,100937.94
2023-04-29T15:42:17.565Z,100940.38
2023-04-29T15:44:49.053Z,100939.47
2023-04-29T15:47:20.519Z,100936.63
2023-04-29T15:49:52.578Z,100951.56
2023-04-29T15:52:24.326Z,100941.00
2023-04-29T15:54:55.855Z,100945.72
2023-04-29T15:57:27.362Z,100953.41
2023-04-29T15:59:59.004Z,100951.59
2023-04-29T16:02:30.530Z,100962.03
2023-04-29T16:05:02.437Z,100976.84
2023-04-29T16:07:34.945Z,100961.44
2023-04-29T16:10:08.328Z,100975.75
2023-04-29T16:12:39.774Z,100978.47
2023-04-29T16:15:11.595Z,100974.56
2023-04-29T16:17:43.102Z,100980.25
2023-04-29T16:20:14.613Z,100980.41
2023-04-29T16:22:46.214Z,100983.66
2023-04-29T16:25:17.693Z,100986.81
2023-04-29T16:27:49.165Z,100986.25
2023-04-29T16:30:20.765Z,100988.50
2023-04-29T16:32:52.438Z,100983.66
2023-04-29T16:35:23.921Z,100989.69
2023-04-29T16:37:55.370Z,100990.84
2023-04-29T16:40:27.328Z,100992.72
2023-04-29T16:42:58.787Z,100986.44
2023-04-29T16:45:30.656Z,100994.81
2023-04-29T16:48:02.154Z,100993.44
2023-04-29T16:50:33.982Z,100997.38
2023-04-29T16:53:05.422Z,100991.97
2023-04-29T16:55:37.202Z,100996.28
2023-04-29T16:58:08.651Z,100999.47
2023-04-29T17:00:40.456Z,100998.31
2023-04-29T17:03:11.913Z,101001.75
2023-04-29T17:05:43.742Z,101005.09
2023-04-29T17:08:15.198Z,101003.28
2023-04-29T17:10:46.822Z,101010.59
2023-04-29T17:13:18.289Z,101010.03
2023-04-29T17:15:49.760Z,101011.66
2023-04-29T17:18:21.229Z,101012.81
2023-04-29T17:20:52.679Z,101017.88
2023-04-29T17:23:24.121Z,101024.16
2023-04-29T17:25:55.759Z,101019.66
2023-04-29T17:28:27.271Z,101030.75
2023-04-29T17:30:59.128Z,101032.25
2023-04-29T17:33:30.629Z,101029.78
2023-04-29T17:36:02.263Z,101046.38
2023-04-29T17:38:33.746Z,101042.63
2023-04-29T17:41:05.549Z,101045.88
2023-04-29T17:43:37.165Z,101051.38
2023-04-29T17:46:08.972Z,101049.88
2023-04-29T17:48:40.463Z,101053.84
2023-04-29T17:51:11.924Z,101060.03
2023-04-29T17:53:43.695Z,101059.59
2023-04-29T17:56:15.138Z,101058.53
2023-04-29T17:58:46.985Z,101063.09
2023-04-29T18:01:18.484Z,101064.25
2023-04-29T18:03:50.067Z,101063.56
2023-04-29T18:06:21.646Z,101066.91
2023-04-29T18:08:53.194Z,101071.56
2023-04-29T18:11:24.654Z,101070.88
2023-04-29T18:13:56.159Z,101080.06
2023-04-29T18:16:27.626Z,101082.63
2023-04-29T18:18:59.637Z,101090.13
2023-04-29T18:21:31.084Z,101092.78
2023-04-29T18:24:02.850Z,101095.41
2023-04-29T18:26:34.301Z,101093.63
2023-04-29T18:29:06.181Z,101098.88
2023-04-29T18:31:37.730Z,101101.00
2023-04-29T18:34:12.651Z,101104.13
2023-04-29T18:36:44.102Z,101099.91
2023-04-29T18:39:15.562Z,101107.00
2023-04-29T18:41:47.019Z,101093.94
2023-04-29T18:44:18.773Z,101112.09
2023-04-29T18:46:50.238Z,101115.69
2023-04-29T18:49:21.967Z,101114.34
2023-04-29T18:51:53.450Z,101110.25
2023-04-29T18:54:25.247Z,101120.22
2023-04-29T18:56:56.742Z,101132.84
2023-04-29T18:59:28.250Z,101138.22
2023-04-29T19:01:59.812Z,101140.97
2023-04-29T19:04:31.600Z,101141.84
2023-04-29T19:07:03.098Z,101143.09
2023-04-29T19:09:34.569Z,101152.16
2023-04-29T19:12:06.051Z,101156.47
2023-04-29T19:14:37.522Z,101162.84
2023-04-29T19:17:09.000Z,101162.41
2023-04-29T19:19:40.904Z,101166.72
2023-04-29T19:22:12.400Z,101169.56
2023-04-29T19:24:44.076Z,101169.31
2023-04-29T19:27:15.833Z,101172.44
2023-04-29T19:29:47.629Z,101171.03
2023-04-29T19:32:19.111Z,101181.72
2023-04-29T19:34:50.602Z,101172.88
2023-04-29T19:37:22.106Z,101180.53
2023-04-29T19:39:53.821Z,101190.63
2023-04-29T19:42:25.476Z,101186.75
2023-04-29T19:44:56.950Z,101189.63
2023-04-29T19:47:28.458Z,101188.06
2023-04-29T19:50:00.192Z,101097.81
2023-04-29T19:52:31.662Z,101187.69
2023-04-29T19:55:03.451Z,101189.34
2023-04-29T19:57:34.909Z,101199.25
2023-04-29T20:00:06.438Z,101193.97
2023-04-29T20:02:37.943Z,101197.09
2023-04-29T20:05:09.850Z,101203.88
2023-04-29T20:07:41.388Z,101202.69
2023-04-29T20:10:13.239Z,101209.25
2023-04-29T20:12:44.694Z,101204.34
2023-04-29T20:15:16.520Z,101206.41
2023-04-29T20:17:48.045Z,101209.50
2023-04-29T20:20:19.935Z,101207.69
2023-04-29T20:22:51.485Z,101218.59
2023-04-29T20:25:23.614Z,101217.78
2023-04-29T20:27:55.082Z,101215.09
2023-04-29T20:30:26.818Z,101225.16
2023-04-29T20:32:58.327Z,101226.19
2023-04-29T20:35:29.851Z,101230.75
2023-04-29T20:38:01.337Z,101223.34
2023-04-29T20:40:33.196Z,101226.44
2023-04-29T20:43:04.728Z,101229.53
2023-04-29T20:45:36.430Z,101236.94
2023-04-29T20:48:08.052Z,101235.50
2023-04-29T20:50:39.804Z,101231.00
2023-04-29T20:53:11.279Z,101240.06
2023-04-29T20:55:43.214Z,101247.25
2023-04-29T20:58:14.678Z,101244.59
2023-04-29T21:00:46.359Z,101249.50
2023-04-29T21:03:17.815Z,101249.31
2023-04-29T21:05:49.386Z,101252.59
2023-04-29T21:08:20.864Z,101248.50
2023-04-29T21:10:52.389Z,101257.13
2023-04-29T21:13:24.026Z,101130.66
2023-04-29T21:15:55.550Z,101264.31
2023-04-29T21:18:28.242Z,101265.13
2023-04-29T21:21:00.168Z,101267.19
2023-04-29T21:23:31.666Z,101267.19
2023-04-29T21:26:03.599Z,101271.50
2023-04-29T21:28:35.061Z,101281.75
2023-04-29T21:31:06.906Z,101276.19
2023-04-29T21:33:38.394Z,101280.50
2023-04-29T21:36:10.164Z,101281.53
2023-04-29T21:38:41.599Z,101285.59
2023-04-29T21:41:13.472Z,101285.78
2023-04-29T21:43:44.921Z,101289.88
2023-04-29T21:46:16.772Z,101283.31
2023-04-29T21:48:48.227Z,101284.56
2023-04-29T21:51:20.019Z,101283.31
2023-04-29T21:53:51.468Z,101296.00
2023-04-29T21:56:23.296Z,101297.22
2023-04-29T21:58:54.757Z,101296.41
2023-04-29T22:01:26.654Z,101300.91
2023-04-29T22:03:58.158Z,101302.13
2023-04-29T22:06:30.012Z,101301.31
2023-04-29T22:09:01.589Z,101303.78
2023-04-29T22:11:33.315Z,101314.22
2023-04-29T22:14:04.778Z,101309.09
2023-04-29T22:16:36.672Z,101319.94
2023-04-29T22:19:08.150Z,101312.38
2023-04-29T22:21:40.132Z,101315.44
2023-04-29T22:24:11.592Z,101316.44
2023-04-29T22:26:43.415Z,101325.44
2023-04-29T22:29:14.882Z,101330.97
2023-04-29T22:31:46.708Z,101336.09
2023-04-29T22:34:18.201Z,101340.38
2023-04-29T22:36:49.663Z,101341.38
2023-04-29T22:39:21.141Z,101341.94
2023-04-29T22:41:52.649Z,101346.44
2023-04-29T22:44:24.196Z,101357.28
2023-04-29T22:46:55.750Z,101361.34
2023-04-29T22:49:27.199Z,101357.84
2023-04-29T22:51:58.951Z,101368.44
2023-04-29T22:54:30.421Z,101368.66
2023-04-29T22:57:02.266Z,101364.09
2023-04-29T22:59:33.734Z,101363.47
2023-04-29T23:02:05.236Z,101367.31
2023-04-29T23:04:36.734Z,101371.00
2023-04-29T23:07:08.759Z,101375.50
2023-04-29T23:09:40.212Z,101374.66
2023-04-29T23:12:12.004Z,101375.63
2023-04-29T23:14:43.451Z,101388.28
2023-04-29T23:17:15.252Z,101387.66
2023-04-29T23:19:46.696Z,101381.09
2023-04-29T23:22:18.454Z,101385.16
2023-04-29T23:24:49.916Z,101388.19
2023-04-29T23:27:21.562Z,101390.78
2023-04-29T23:29:53.135Z,101384.84
2023-04-29T23:32:25.025Z,101396.47
2023-04-29T23:34:56.500Z,101389.47
2023-04-29T23:37:28.311Z,101396.38
2023-04-29T23:39:59.790Z,101391.06
2023-04-29T23:42:31.714Z,101391.63
2023-04-29T23:45:03.168Z,101401.81
2023-04-29T23:47:35.084Z,101394.88
2023-04-29T23:50:06.660Z,101399.94
2023-04-29T23:52:38.311Z,101392.50
2023-04-29T23:55:09.767Z,101395.72
2023-04-29T23:57:41.532Z,101401.81
